^^
Meteo Knjazevac Station Historical Data
Daily Summary for January 19, 2021 Units:  English    Metric   Both
Daily Weekly Monthly Yearly Custom
  High: Low: Average:
Temperature: 25 °F 22.5 °F 24.1 °F
Dew Point: 20.4 °F 18.4 °F 19.3 °F
Humidity: 85% 79% 82%
Wind Speed: 6mph 0mph 2.5mph
Wind Gust: 10mph - -
Wind- - SW
Pressure: 30.29 in 30.28 in -
Precipitation: 0.00 in    
Historical Graphs
 
 
Tabular Data for January 19, 2021
Time Temperature Dew Point Pressure Wind Wind Speed Wind Gust Humidity Rainfall Rate (Hourly) solar Conditions
00:00 25 °F 19.7 °F 30.29 in WSW 6 mph 9 mph 80% 0.00 in 0 W/m2
00:10 25 °F 19.7 °F 30.29 in WSW 5 mph 8 mph 80% 0.00 in 0 W/m2
00:20 25 °F 19.4 °F 30.29 in SW 6 mph 10 mph 79% 0.00 in 0 W/m2
00:30 25 °F 19.4 °F 30.29 in SW 5 mph 10 mph 79% 0.00 in 0 W/m2
00:40 25 °F 19.7 °F 30.29 in SW 6 mph 8 mph 80% 0.00 in 0 W/m2
00:50 25 °F 19.7 °F 30.29 in WSW 3 mph 8 mph 80% 0.00 in 0 W/m2
01:00 24.8 °F 19.5 °F 30.29 in SW 3 mph 7 mph 80% 0.00 in 0 W/m2
01:10 24.8 °F 19.5 °F 30.29 in SW 3 mph 7 mph 80% 0.00 in 0 W/m2
01:20 24.8 °F 19.5 °F 30.29 in SW 3 mph 7 mph 80% 0.00 in 0 W/m2
01:30 24.8 °F 19.5 °F 30.29 in SW 3 mph 7 mph 80% 0.00 in 0 W/m2
01:40 24.8 °F 19.2 °F 30.29 in SW 5 mph 10 mph 79% 0.00 in 0 W/m2
01:50 24.9 °F 19.6 °F 30.29 in WSW 3 mph 7 mph 80% 0.00 in 0 W/m2
02:00 24.8 °F 19.5 °F 30.29 in WSW 3 mph 7 mph 80% 0.00 in 0 W/m2
02:10 25 °F 19.4 °F 30.29 in WSW 6 mph 8 mph 79% 0.00 in 0 W/m2
02:20 25 °F 19.4 °F 30.29 in WSW 5 mph 10 mph 79% 0.00 in 0 W/m2
02:30 24.8 °F 19.5 °F 30.29 in WSW 6 mph 9 mph 80% 0.00 in 0 W/m2
02:40 24.8 °F 19.5 °F 30.29 in WSW 3 mph 8 mph 80% 0.00 in 0 W/m2
02:50 24.6 °F 19.3 °F 30.29 in WSW 3 mph 6 mph 80% 0.00 in 0 W/m2
03:00 24.4 °F 19.2 °F 30.29 in WSW 3 mph 6 mph 80% 0.00 in 0 W/m2
03:10 24.3 °F 19.3 °F 30.29 in WSW 3 mph 6 mph 81% 0.00 in 0 W/m2
03:20 24.2 °F 19.2 °F 30.29 in SW 3 mph 7 mph 81% 0.00 in 0 W/m2
03:30 24.1 °F 19.1 °F 30.29 in WSW 2 mph 5 mph 81% 0.00 in 0 W/m2
03:40 23.9 °F 18.9 °F 30.29 in WSW 2 mph 3 mph 81% 0.00 in 0 W/m2
03:50 23.9 °F 18.9 °F 30.29 in West 2 mph 6 mph 81% 0.00 in 0 W/m2
04:00 23.7 °F 18.7 °F 30.28 in Calm   4 mph 81% 0.00 in 0 W/m2
04:10 23.5 °F 19.1 °F 30.28 in West 1 mph 3 mph 83% 0.00 in 0 W/m2
04:20 23.4 °F 19 °F 30.28 in SW 1 mph 4 mph 83% 0.00 in 0 W/m2
04:30 23.4 °F 19 °F 30.28 in Calm   6 mph 83% 0.00 in 0 W/m2
04:40 23 °F 18.6 °F 30.28 in West 2 mph 3 mph 83% 0.00 in 0 W/m2
04:50 22.6 °F 18.5 °F 30.28 in West 2 mph 3 mph 84% 0.00 in 0 W/m2
05:00 22.5 °F 18.4 °F 30.28 in WSW 1 mph 3 mph 84% 0.00 in 0 W/m2
05:10 22.5 °F 18.4 °F 30.28 in Calm   2 mph 84% 0.00 in 0 W/m2
05:20 22.6 °F 18.5 °F 30.28 in Calm   2 mph 84% 0.00 in 0 W/m2
05:30 22.8 °F 18.7 °F 30.28 in Calm   2 mph 84% 0.00 in 0 W/m2
05:40 23 °F 18.9 °F 30.28 in SSE 1 mph 3 mph 84% 0.00 in 0 W/m2
05:50 23.4 °F 19.2 °F 30.28 in SSE 2 mph 6 mph 84% 0.00 in 0 W/m2
06:00 23.4 °F 19.5 °F 30.29 in SW 1 mph 5 mph 85% 0.00 in 0 W/m2
06:10 23.5 °F 19.7 °F 30.29 in SW 2 mph 4 mph 85% 0.00 in 0 W/m2
06:20 23.5 °F 19.7 °F 30.29 in SSW 1 mph 5 mph 85% 0.00 in 0 W/m2
06:30 23.9 °F 20 °F 30.29 in SSE 2 mph 5 mph 85% 0.00 in 0 W/m2
06:40 24.1 °F 20.2 °F 30.29 in South 1 mph 4 mph 85% 0.00 in 0 W/m2
06:50 24.1 °F 20.2 °F 30.29 in Calm   3 mph 85% 0.00 in 0 W/m2
07:00 24.3 °F 20.1 °F 30.29 in SSW 1 mph 7 mph 84% 0.00 in 1 W/m2
07:10 24.3 °F 20.4 °F 30.29 in South 1 mph 5 mph 85% 0.00 in 4 W/m2
Knjazevac, Serbia
Compliments of Weather Underground - 2 mb